createdAt,value
2018-06-29T00:01:59.428Z,5.43
2018-06-29T00:07:02.338Z,5.10
2018-06-29T00:12:04.879Z,5.00
2018-06-29T00:17:07.438Z,5.40
2018-06-29T00:22:09.996Z,5.17
2018-06-29T00:27:12.549Z,6.23
2018-06-29T00:32:15.096Z,5.37
2018-06-29T00:37:17.648Z,5.13
2018-06-29T00:42:20.207Z,5.30
2018-06-29T00:47:22.748Z,5.77
2018-06-29T00:52:26.071Z,6.40
2018-06-29T00:57:29.397Z,5.87
2018-06-29T01:02:33.130Z,6.20
2018-06-29T01:07:37.044Z,6.53
2018-06-29T01:17:57.209Z,6.30
2018-06-29T01:23:00.236Z,6.20
2018-06-29T01:28:03.146Z,6.67
2018-06-29T01:33:05.919Z,5.70
2018-06-29T01:38:08.789Z,5.70
2018-06-29T01:43:12.128Z,6.07
2018-06-29T01:48:16.447Z,6.53
2018-06-29T01:53:19.483Z,6.40
2018-06-29T01:58:22.430Z,5.50
2018-06-29T02:03:25.384Z,5.87
2018-06-29T02:08:31.573Z,5.93
2018-06-29T02:13:34.290Z,5.70
2018-06-29T02:18:37.195Z,5.30
2018-06-29T02:23:40.202Z,4.57
2018-06-29T02:28:43.133Z,6.53
2018-06-29T02:33:46.021Z,5.97
2018-06-29T02:38:50.675Z,6.07
2018-06-29T02:43:54.014Z,6.00
2018-06-29T02:48:56.858Z,5.53
2018-06-29T02:54:02.091Z,5.60
2018-06-29T02:59:05.058Z,5.40
2018-06-29T03:04:08.523Z,6.43
2018-06-29T03:09:11.219Z,6.07
2018-06-29T03:14:14.529Z,5.93
2018-06-29T03:19:17.521Z,5.80
2018-06-29T03:24:20.062Z,6.37
2018-06-29T03:29:22.579Z,6.20
2018-06-29T03:34:25.090Z,6.47
2018-06-29T03:39:27.604Z,5.63
2018-06-29T03:44:30.124Z,6.13
2018-06-29T03:49:32.697Z,6.70
2018-06-29T03:54:35.537Z,6.67
2018-06-29T03:59:38.242Z,6.13
2018-06-29T04:04:42.345Z,6.60
2018-06-29T04:09:45.138Z,6.97
2018-06-29T04:14:48.553Z,7.20
2018-06-29T04:19:51.566Z,6.00
2018-06-29T04:24:54.798Z,5.40
2018-06-29T04:29:57.761Z,6.00
2018-06-29T04:35:00.736Z,6.00
2018-06-29T04:40:03.752Z,6.17
2018-06-29T04:45:06.475Z,5.60
2018-06-29T04:50:09.240Z,7.37
2018-06-29T04:55:13.006Z,5.33
2018-06-29T05:00:16.025Z,6.43
2018-06-29T05:05:18.914Z,6.90
2018-06-29T05:10:21.845Z,7.70
2018-06-29T05:15:24.972Z,7.40
2018-06-29T05:20:27.900Z,7.03
2018-06-29T05:25:30.836Z,6.13
2018-06-29T05:30:34.354Z,6.50
2018-06-29T05:35:36.868Z,5.87
2018-06-29T05:40:39.404Z,5.87
2018-06-29T05:45:44.366Z,5.87
2018-06-29T05:50:47.371Z,6.50
2018-06-29T05:55:50.398Z,6.13
2018-06-29T06:00:52.952Z,5.77
2018-06-29T06:05:55.468Z,6.00
2018-06-29T06:10:57.988Z,6.63
2018-06-29T06:16:01.293Z,6.30
2018-06-29T06:21:03.775Z,6.40
2018-06-29T06:26:06.320Z,5.67
2018-06-29T06:31:08.825Z,6.60
2018-06-29T06:36:12.113Z,5.57
2018-06-29T06:41:14.639Z,7.53
2018-06-29T06:46:17.159Z,7.63
2018-06-29T06:51:19.672Z,6.87
2018-06-29T06:56:22.188Z,6.90
2018-06-29T07:01:24.704Z,7.23
2018-06-29T07:06:27.224Z,6.70
2018-06-29T07:11:30.508Z,6.43
2018-06-29T07:16:33.040Z,7.90
2018-06-29T07:21:35.564Z,7.37
2018-06-29T07:26:38.067Z,6.83
2018-06-29T07:31:40.579Z,5.60
2018-06-29T07:36:43.096Z,7.03
2018-06-29T07:41:45.616Z,6.53
2018-06-29T07:46:48.132Z,7.20
2018-06-29T07:51:51.415Z,5.80
2018-06-29T07:56:53.940Z,8.07
2018-06-29T08:01:58.523Z,8.13
2018-06-29T08:07:01.086Z,6.17
2018-06-29T08:12:03.600Z,7.20
2018-06-29T08:17:07.579Z,7.80
2018-06-29T08:22:11.999Z,7.17
2018-06-29T08:27:17.481Z,6.77
2018-06-29T08:32:20.591Z,7.10
2018-06-29T08:37:23.143Z,6.43
2018-06-29T08:42:26.435Z,7.33
2018-06-29T08:47:28.951Z,6.27
2018-06-29T08:52:32.236Z,6.23
2018-06-29T08:57:34.751Z,6.07
2018-06-29T09:02:37.276Z,5.40
2018-06-29T09:07:39.809Z,6.10
2018-06-29T09:12:42.332Z,5.47
2018-06-29T09:17:44.852Z,5.67
2018-06-29T09:22:47.390Z,5.97
2018-06-29T09:27:49.916Z,5.37
2018-06-29T09:37:52.045Z,5.37
2018-06-29T09:42:54.568Z,5.03
2018-06-29T09:47:57.150Z,4.40
2018-06-29T09:52:59.607Z,5.77
2018-06-29T09:58:02.132Z,5.60
2018-06-29T10:03:07.188Z,5.10
2018-06-29T10:08:11.640Z,6.20
2018-06-29T10:13:16.118Z,5.27
2018-06-29T10:18:19.161Z,5.93
2018-06-29T10:23:22.037Z,5.50
2018-06-29T10:28:25.081Z,4.60
2018-06-29T10:33:27.649Z,5.37
2018-06-29T10:38:30.181Z,5.03
2018-06-29T10:43:32.707Z,6.20
2018-06-29T10:48:35.251Z,5.20
2018-06-29T10:53:37.776Z,6.40
2018-06-29T10:58:40.342Z,5.47
2018-06-29T11:03:42.844Z,5.70
2018-06-29T11:08:45.360Z,4.90
2018-06-29T11:13:47.884Z,5.23
2018-06-29T11:18:50.416Z,5.93
2018-06-29T11:23:52.944Z,5.30
2018-06-29T11:28:55.464Z,5.03
2018-06-29T11:33:57.988Z,6.23
2018-06-29T11:39:00.503Z,5.90
2018-06-29T11:44:03.041Z,5.70
2018-06-29T11:49:05.569Z,5.40
2018-06-29T11:54:08.087Z,4.83
2018-06-29T11:59:10.631Z,5.13
2018-06-29T12:04:13.147Z,5.20
2018-06-29T12:09:15.672Z,6.60
2018-06-29T12:14:18.224Z,4.60
2018-06-29T12:19:20.815Z,4.93
2018-06-29T12:24:25.667Z,4.10
2018-06-29T12:29:28.980Z,5.30
2018-06-29T12:34:32.295Z,4.87
2018-06-29T12:39:34.900Z,4.13
2018-06-29T12:44:38.182Z,4.57
2018-06-29T12:49:40.708Z,3.90
2018-06-29T12:54:43.235Z,4.13
2018-06-29T12:59:45.798Z,4.30
2018-06-29T13:04:48.328Z,3.90
2018-06-29T13:09:50.902Z,3.97
2018-06-29T13:14:53.761Z,4.33
2018-06-29T13:19:56.469Z,3.67
2018-06-29T13:24:59.427Z,3.67
2018-06-29T13:30:01.960Z,3.93
2018-06-29T13:35:05.882Z,3.83
2018-06-29T13:40:09.461Z,3.57
2018-06-29T13:45:12.062Z,3.60
2018-06-29T13:50:14.638Z,4.00
2018-06-29T13:55:17.229Z,2.97
2018-06-29T14:00:19.888Z,3.03
2018-06-29T14:05:22.526Z,2.97
2018-06-29T14:10:25.460Z,3.20
2018-06-29T14:15:28.021Z,4.97
2018-06-29T14:20:30.646Z,3.00
2018-06-29T14:25:33.634Z,3.40
2018-06-29T14:30:36.667Z,2.87
2018-06-29T14:35:39.279Z,3.60
2018-06-29T14:40:41.918Z,2.80
2018-06-29T14:45:44.740Z,3.10
2018-06-29T14:50:47.619Z,2.90
2018-06-29T14:55:52.002Z,3.10
2018-06-29T15:00:54.909Z,3.10
2018-06-29T15:05:57.831Z,2.73
2018-06-29T15:11:00.408Z,3.50
2018-06-29T15:16:03.337Z,3.03
2018-06-29T15:21:06.241Z,3.00
2018-06-29T15:26:09.064Z,2.83
2018-06-29T15:31:13.307Z,3.37
2018-06-29T15:36:16.239Z,3.10
2018-06-29T15:41:22.324Z,3.37
2018-06-29T15:46:25.484Z,3.27
2018-06-29T15:51:29.655Z,4.10
2018-06-29T15:56:32.239Z,3.37
2018-06-29T16:01:34.858Z,3.70
2018-06-29T16:06:38.164Z,3.70
2018-06-29T16:11:40.685Z,3.20
2018-06-29T16:16:43.204Z,3.13
2018-06-29T16:21:45.732Z,3.53
2018-06-29T16:26:48.253Z,3.00
2018-06-29T16:31:55.111Z,3.30
2018-06-29T16:36:57.668Z,4.03
2018-06-29T16:42:00.190Z,3.87
2018-06-29T16:47:02.719Z,3.23
2018-06-29T16:52:05.248Z,2.90
2018-06-29T16:57:07.771Z,2.73
2018-06-29T17:02:11.484Z,2.70
2018-06-29T17:07:16.846Z,3.10
2018-06-29T17:12:20.994Z,3.53
2018-06-29T17:17:24.431Z,3.30
2018-06-29T17:22:27.043Z,3.70
2018-06-29T17:27:30.509Z,3.07
2018-06-29T17:32:34.354Z,3.27
2018-06-29T17:37:42.046Z,3.60
2018-06-29T17:42:46.586Z,3.13
2018-06-29T17:47:50.422Z,3.40
2018-06-29T17:52:53.649Z,3.20
2018-06-29T17:57:57.955Z,3.20
2018-06-29T18:03:01.258Z,3.80
2018-06-29T18:08:04.116Z,3.43
2018-06-29T18:13:06.851Z,3.43
2018-06-29T18:18:09.347Z,3.00
2018-06-29T18:23:12.043Z,3.03
2018-06-29T18:28:15.368Z,3.70
2018-06-29T18:33:18.726Z,3.13
2018-06-29T18:38:21.627Z,2.73
2018-06-29T18:43:24.896Z,3.23
2018-06-29T18:48:28.168Z,3.43
2018-06-29T18:53:32.084Z,3.90
2018-06-29T18:58:34.836Z,3.73
2018-06-29T19:03:37.455Z,3.60
2018-06-29T19:08:40.020Z,3.50
2018-06-29T19:13:42.543Z,3.90
2018-06-29T19:18:45.055Z,3.80
2018-06-29T19:23:47.576Z,3.83
2018-06-29T19:28:50.100Z,3.93
2018-06-29T19:33:52.619Z,4.10
2018-06-29T19:38:55.909Z,3.63
2018-06-29T19:43:58.460Z,4.53
2018-06-29T19:49:01.752Z,3.73
2018-06-29T19:54:04.284Z,4.00
2018-06-29T19:59:06.799Z,3.77
2018-06-29T20:04:09.318Z,3.80
2018-06-29T20:09:11.840Z,3.53
2018-06-29T20:14:15.123Z,3.77
2018-06-29T20:19:17.631Z,3.70
2018-06-29T20:24:20.159Z,4.00
2018-06-29T20:29:23.440Z,4.83
2018-06-29T20:34:26.012Z,3.90
2018-06-29T20:39:29.320Z,4.33
2018-06-29T20:44:31.920Z,4.60
2018-06-29T20:49:34.537Z,5.20
2018-06-29T20:54:37.054Z,5.80
2018-06-29T20:59:39.569Z,4.57
2018-06-29T21:04:42.113Z,5.00
2018-06-29T21:09:45.379Z,4.27
2018-06-29T21:14:47.897Z,4.53
2018-06-29T21:19:50.411Z,5.13
2018-06-29T21:24:52.927Z,5.17
2018-06-29T21:29:55.443Z,4.57
2018-06-29T21:34:57.956Z,5.60
2018-06-29T21:40:00.939Z,4.70
2018-06-29T21:45:05.153Z,5.33
2018-06-29T21:50:08.576Z,5.03
2018-06-29T21:55:11.164Z,4.37
2018-06-29T22:00:14.827Z,5.37
2018-06-29T22:05:17.407Z,4.50
2018-06-29T22:10:20.828Z,5.27
2018-06-29T22:15:25.388Z,4.47
2018-06-29T22:20:28.339Z,5.60
2018-06-29T22:25:32.057Z,5.40
2018-06-29T22:30:34.596Z,5.90
2018-06-29T22:35:37.108Z,5.03
2018-06-29T22:40:42.023Z,6.27
2018-06-29T22:45:46.552Z,6.20
2018-06-29T22:50:50.102Z,6.07
2018-06-29T22:55:52.991Z,4.87
2018-06-29T23:00:56.405Z,5.03
2018-06-29T23:05:59.491Z,5.50
2018-06-29T23:11:02.486Z,5.97
2018-06-29T23:16:05.446Z,5.67
2018-06-29T23:21:08.302Z,6.03
2018-06-29T23:26:11.907Z,5.20
2018-06-29T23:31:14.432Z,5.63
2018-06-29T23:36:16.996Z,5.80
2018-06-29T23:41:19.599Z,5.30
2018-06-29T23:46:22.504Z,5.20
2018-06-29T23:51:25.019Z,4.97
2018-06-29T23:56:27.567Z,5.77
